메인 페이지
METAR-TAF:

METAR-TAF

공항 :

아이자울, 인도

위도: 23-50-18N, 경도: 92-37-13E, 고도: 405m

현재 날씨관측

예보는 10 시간 3분 전, 10:30시(UTC)에 발표되었습니다.
북북서4kt
온도 25°C
습도 83%
기압 1014 hPa
시정: 5000m
박무

METAR: VELP 301030Z 34004KT 5000 BR NSC 25/22 Q1014 NOSIG

시각: 02:03 (20:33 UTC)

예보

예보는 15 시간 33분 전, 05:00시(UTC)에 발표되었습니다.
예보 대상 시간: 30일 06시부터 30일 15시까지 (UTC)
kt
시정: 5000m
연무

TAF: VELP 300500Z 3006/3015 00000KT 5000 HZ NSC

4,000개 이상의 공항 관측 자료 및 예보 (METAR 및 TAF 보고).

지도상에서 검색 가능한 기상관측소가 노란 점과 빨간 점으로 표시되어 있습니다.

기상관측소 명을 보려면 표시 위로 마우스를 이동하세요.

날씨 관측과 예보를 보려면 클릭하세요.

지도 변경 : 확대하려면 엑스 표시가 있는 녹색 버튼, 축소하려면 빼기 표시가 있는 녹색 버튼, 다음 페이지의 지도를 보려면 녹색 화살표를 클릭하세요.


METAR-TAF: